Time;durP1;ratioP1;P1;durP2;ratioP2;P2;SDS_P1;SDS_P2;PMS_P1;PMS_P2;Temp;Humidity;BMP_temperature;BMP_pressure;BME280_temperature;BME280_humidity;BME280_pressure;Samples;Min_cycle;Max_cycle;Signal;HPM_P1;HPM_P2
2023/03/12 00:01:54;;;;;;;18.10;10.37;;;;;;;3.09;61.90;100953.38;5263603;28;20021;-70
2023/03/12 00:04:26;;;;;;;8.07;4.20;;;;;;;3.13;62.14;100960.34;5264319;28;20065;-69
2023/03/12 00:06:57;;;;;;;10.13;4.35;;;;;;;3.13;62.32;100959.50;5264227;28;20083;-69
2023/03/12 00:09:29;;;;;;;12.27;6.47;;;;;;;3.07;62.45;100949.91;5263916;28;20033;-69
2023/03/12 00:12:00;;;;;;;13.53;5.10;;;;;;;3.08;62.31;100946.53;5264123;28;20075;-73
2023/03/12 00:14:32;;;;;;;11.03;5.67;;;;;;;3.03;62.46;100940.41;5264144;28;20028;-69
2023/03/12 00:17:03;;;;;;;10.53;4.57;;;;;;;3.02;63.12;100941.25;5264115;28;20029;-68
2023/03/12 00:19:35;;;;;;;25.73;13.63;;;;;;;3.02;62.69;100938.66;5264365;28;20033;-69
2023/03/12 00:22:06;;;;;;;11.27;6.20;;;;;;;3.00;63.13;100943.78;5264218;28;20064;-70
2023/03/12 00:24:38;;;;;;;9.57;4.30;;;;;;;3.03;63.09;100930.97;5264197;28;20098;-69
2023/03/12 00:27:09;;;;;;;7.20;4.10;;;;;;;3.05;63.84;100928.44;5263745;28;20037;-69
2023/03/12 00:29:40;;;;;;;9.70;4.00;;;;;;;3.05;63.45;100920.69;5262288;28;20053;-70
2023/03/12 00:32:12;;;;;;;12.57;4.83;;;;;;;3.00;63.95;100912.88;5263713;28;20025;-69
2023/03/12 00:34:43;;;;;;;14.50;4.53;;;;;;;3.00;63.13;100915.44;5262258;28;20540;-69
2023/03/12 00:37:15;;;;;;;12.37;6.03;;;;;;;2.99;63.02;100912.84;5263669;28;20029;-69
2023/03/12 00:39:47;;;;;;;12.37;4.07;;;;;;;3.03;62.12;100904.34;5262313;28;20032;-69
2023/03/12 00:42:18;;;;;;;9.15;4.13;;;;;;;3.03;62.62;100907.78;5263572;28;20098;-68
2023/03/12 00:44:50;;;;;;;17.03;4.57;;;;;;;3.07;62.28;100908.72;5263603;28;20040;-69
2023/03/12 00:47:21;;;;;;;11.87;5.27;;;;;;;3.05;61.94;100905.25;5263430;28;20032;-69
2023/03/12 00:49:53;;;;;;;8.90;3.83;;;;;;;3.04;62.72;100908.66;5263709;28;20037;-69
2023/03/12 00:52:24;;;;;;;7.80;3.77;;;;;;;3.09;63.13;100896.72;5264090;28;20040;-70
2023/03/12 00:54:57;;;;;;;12.00;4.47;;;;;;;3.05;63.37;100893.22;5263361;28;20037;-69
2023/03/12 00:57:29;;;;;;;11.20;5.43;;;;;;;3.08;63.53;100898.44;5263211;28;20043;-70
2023/03/12 01:00:00;;;;;;;9.47;3.90;;;;;;;3.13;63.44;100898.53;5263329;28;20041;-69
2023/03/12 01:02:32;;;;;;;7.43;4.07;;;;;;;3.13;63.51;100895.97;5263486;28;20103;-69
2023/03/12 01:05:09;;;;;;;9.73;4.50;;;;;;;3.12;63.36;100886.47;5263546;28;20044;-70
2023/03/12 01:07:41;;;;;;;7.75;3.90;;;;;;;3.12;63.25;100889.06;5263133;28;20032;-69
2023/03/12 01:10:16;;;;;;;12.27;4.47;;;;;;;3.10;63.00;100885.59;5263231;28;20033;-69
2023/03/12 01:12:48;;;;;;;6.45;4.05;;;;;;;3.10;63.10;100875.28;5263744;28;20033;-69
2023/03/12 01:15:19;;;;;;;11.17;4.97;;;;;;;3.13;62.51;100875.34;5261862;28;20036;-68
2023/03/12 01:17:50;;;;;;;14.83;6.67;;;;;;;3.12;62.50;100871.03;5262944;28;20043;-69
2023/03/12 01:20:22;;;;;;;14.87;4.13;;;;;;;3.11;62.41;100869.31;5262901;28;20056;-69
2023/03/12 01:22:53;;;;;;;8.27;4.00;;;;;;;3.09;61.99;100866.72;5261934;28;20040;-68
2023/03/12 01:25:25;;;;;;;11.87;5.07;;;;;;;3.08;62.19;100864.97;5263146;28;20468;-69
2023/03/12 01:27:56;;;;;;;8.70;3.90;;;;;;;3.05;61.79;100866.63;5262273;28;20039;-70
2023/03/12 01:30:28;;;;;;;10.50;4.03;;;;;;;3.04;62.29;100868.34;5263369;28;20033;-69
2023/03/12 01:33:00;;;;;;;11.25;4.60;;;;;;;3.06;62.00;100883.81;5262830;28;20044;-69
2023/03/12 01:35:36;;;;;;;8.27;3.70;;;;;;;3.05;62.12;100874.34;5261318;28;20102;-69
2023/03/12 01:38:12;;;;;;;9.13;4.13;;;;;;;3.03;63.10;100876.03;5262970;28;20123;-68
2023/03/12 01:40:44;;;;;;;10.63;4.18;;;;;;;3.05;63.11;100870.06;5262770;28;20025;-69
2023/03/12 01:43:26;;;;;;;11.00;4.20;;;;;;;3.08;62.54;100858.94;5262545;28;20036;-68
2023/03/12 01:45:58;;;;;;;7.88;4.35;;;;;;;3.07;63.19;100857.19;5262575;28;20025;-69
2023/03/12 01:48:41;;;;;;;7.00;3.83;;;;;;;3.04;63.74;100862.28;5262535;28;20132;-68
2023/03/12 01:51:14;;;;;;;12.05;4.07;;;;;;;3.03;63.09;100847.69;5262908;28;20025;-69
2023/03/12 01:53:49;;;;;;;11.35;3.72;;;;;;;3.02;63.72;100844.22;5261345;28;20029;-70
2023/03/12 01:56:25;;;;;;;10.85;5.00;;;;;;;2.92;64.50;100845.75;5261192;28;20416;-69
2023/03/12 01:59:01;;;;;;;9.15;3.70;;;;;;;2.97;63.27;100843.28;5261464;28;20032;-69
2023/03/12 02:01:33;;;;;;;8.52;3.92;;;;;;;2.98;62.97;100847.59;5262780;28;20029;-69
2023/03/12 02:04:04;;;;;;;11.63;3.97;;;;;;;2.97;62.86;100839.84;5262402;28;20147;-71
2023/03/12 02:06:51;;;;;;;12.27;4.50;;;;;;;2.98;63.42;100829.59;5262264;28;20029;-68
2023/03/12 02:09:23;;;;;;;10.85;3.47;;;;;;;2.97;63.74;100830.41;5262615;28;20029;-69
2023/03/12 02:11:55;;;;;;;8.33;4.20;;;;;;;2.97;63.57;100827.84;5261265;28;20043;-69
2023/03/12 02:14:26;;;;;;;9.77;4.23;;;;;;;2.97;63.92;100826.97;5261033;28;20033;-69
2023/03/12 02:16:58;;;;;;;13.13;4.70;;;;;;;2.86;64.30;100817.31;5262326;28;20064;-69
2023/03/12 02:20:11;;;;;;;10.60;5.13;;;;;;;2.91;64.49;100820.88;5262211;28;20037;-70
2023/03/12 02:22:50;;;;;;;12.85;4.82;;;;;;;2.86;64.74;100807.03;5260842;28;20037;-69
2023/03/12 02:25:35;;;;;;;9.85;4.63;;;;;;;2.88;64.72;100804.47;5265848;28;20032;-70
2023/03/12 02:28:11;;;;;;;13.32;4.75;;;;;;;2.80;65.41;100806.94;5265911;28;20513;-70
2023/03/12 02:30:48;;;;;;;11.93;4.40;;;;;;;2.79;65.91;100800.03;5265905;28;20029;-68
2023/03/12 02:33:20;;;;;;;11.20;4.80;;;;;;;2.80;66.12;100801.78;5266109;28;20043;-70
2023/03/12 02:35:52;;;;;;;12.00;4.33;;;;;;;2.78;66.37;100803.44;5266039;28;20029;-70
2023/03/12 02:38:35;;;;;;;13.07;5.65;;;;;;;2.77;66.65;100804.28;5266279;28;20464;-70
2023/03/12 02:41:18;;;;;;;12.02;4.72;;;;;;;2.75;67.17;100800.78;5266425;28;20358;-70
2023/03/12 02:43:53;;;;;;;12.80;4.63;;;;;;;2.76;66.90;100804.25;5265914;28;20484;-69
2023/03/12 02:46:24;;;;;;;11.63;4.50;;;;;;;2.74;67.29;100814.53;5264110;28;20029;-69
2023/03/12 02:48:56;;;;;;;13.47;4.87;;;;;;;2.75;67.49;100813.66;5264494;28;20044;-69
2023/03/12 02:51:28;;;;;;;11.30;5.15;;;;;;;2.71;67.75;100815.31;5264520;28;20033;-69
2023/03/12 02:53:59;;;;;;;10.77;4.30;;;;;;;2.71;68.01;100811.88;5264853;28;20049;-69
2023/03/12 02:56:31;;;;;;;6.53;4.40;;;;;;;2.68;68.21;100804.97;5264426;28;20060;-69
2023/03/12 02:59:04;;;;;;;8.50;4.87;;;;;;;2.68;69.04;100806.69;5264459;28;20444;-69
2023/03/12 03:01:35;;;;;;;11.77;5.28;;;;;;;2.67;69.83;100802.34;5265406;28;20029;-70
2023/03/12 03:04:08;;;;;;;12.77;5.13;;;;;;;2.68;70.88;100797.25;5265358;28;20029;-68
2023/03/12 03:06:42;;;;;;;13.65;5.30;;;;;;;2.68;71.83;100789.53;5266048;28;20033;-68
2023/03/12 03:09:14;;;;;;;13.82;5.18;;;;;;;2.64;72.56;100792.00;5265495;28;20059;-69
2023/03/12 03:11:45;;;;;;;13.17;5.10;;;;;;;2.60;74.05;100788.50;5266031;28;20500;-68
2023/03/12 03:14:17;;;;;;;9.87;5.17;;;;;;;2.56;74.69;100794.44;5265408;28;20453;-69
2023/03/12 03:16:49;;;;;;;12.27;6.00;;;;;;;2.50;76.25;100802.91;5266191;28;20391;-69
2023/03/12 03:19:20;;;;;;;12.07;5.80;;;;;;;2.50;76.29;100802.03;5265302;28;20082;-69
2023/03/12 03:21:52;;;;;;;10.87;4.73;;;;;;;2.44;77.58;100792.47;5265474;28;20113;-69
2023/03/12 03:24:23;;;;;;;9.87;4.27;;;;;;;2.44;78.35;100792.47;5264594;28;20040;-68
2023/03/12 03:26:54;;;;;;;11.10;5.87;;;;;;;2.44;79.09;100789.91;5265102;28;20039;-68
2023/03/12 03:29:26;;;;;;;8.87;4.70;;;;;;;2.43;79.46;100787.28;5263767;28;20061;-69
2023/03/12 03:31:57;;;;;;;11.23;4.60;;;;;;;2.39;80.32;100783.78;5265358;28;20033;-69
2023/03/12 03:34:28;;;;;;;11.07;4.83;;;;;;;2.41;80.84;100784.69;5263905;28;20116;-69
2023/03/12 03:37:00;;;;;;;18.17;4.40;;;;;;;2.37;81.03;100780.34;5264171;28;20032;-68
2023/03/12 03:39:31;;;;;;;7.40;3.90;;;;;;;2.37;81.22;100777.75;5263674;28;20033;-69
2023/03/12 03:42:03;;;;;;;8.50;5.10;;;;;;;2.37;82.29;100776.03;5264522;28;20523;-69
2023/03/12 03:44:34;;;;;;;10.03;4.33;;;;;;;2.35;83.30;100774.25;5264558;28;20369;-69
2023/03/12 03:47:06;;;;;;;13.03;4.80;;;;;;;2.36;83.02;100764.00;5264753;28;20031;-69
2023/03/12 03:49:37;;;;;;;14.70;5.47;;;;;;;2.35;83.15;100754.56;5265068;28;20071;-69
2023/03/12 03:52:08;;;;;;;8.50;3.97;;;;;;;2.34;83.90;100746.81;5264607;28;20029;-70
2023/03/12 03:54:40;;;;;;;9.23;4.87;;;;;;;2.31;84.05;100741.63;5264999;28;20048;-70
2023/03/12 03:57:11;;;;;;;10.23;4.43;;;;;;;2.28;83.74;100737.25;5264266;28;20036;-69
2023/03/12 03:59:42;;;;;;;10.77;4.37;;;;;;;2.21;83.91;100724.25;5264265;28;20440;-69
2023/03/12 04:02:14;;;;;;;11.87;5.40;;;;;;;2.23;84.50;100727.75;5262974;28;20033;-70
2023/03/12 04:04:45;;;;;;;9.20;4.47;;;;;;;2.24;84.64;100737.16;5264978;28;20033;-69
2023/03/12 04:07:17;;;;;;;12.90;5.07;;;;;;;2.24;84.50;100742.31;5262982;28;20029;-70
2023/03/12 04:09:48;;;;;;;13.83;4.90;;;;;;;2.24;84.49;100735.47;5264600;28;20090;-70
2023/03/12 04:12:20;;;;;;;12.30;4.97;;;;;;;2.28;84.06;100734.69;5262995;28;20033;-69
2023/03/12 04:14:52;;;;;;;11.10;5.32;;;;;;;2.32;84.18;100725.34;5263528;28;20151;-69
2023/03/12 04:17:23;;;;;;;15.30;5.30;;;;;;;2.34;83.83;100716.81;5246878;28;20028;-70
2023/03/12 04:19:55;;;;;;;10.30;5.23;;;;;;;2.36;83.62;100712.56;5264105;28;20056;-69
2023/03/12 04:22:26;;;;;;;13.90;5.27;;;;;;;2.36;83.40;100716.84;5262873;28;20029;-69
2023/03/12 04:24:57;;;;;;;8.33;5.17;;;;;;;2.40;83.20;100708.38;5263559;28;20090;-69
2023/03/12 04:27:29;;;;;;;13.50;5.93;;;;;;;2.40;83.14;100699.75;5263826;28;20029;-69
2023/03/12 04:30:00;;;;;;;10.67;4.80;;;;;;;2.40;82.71;100695.50;5263736;28;20405;-69
2023/03/12 04:32:31;;;;;;;10.60;4.70;;;;;;;2.42;82.89;100685.25;5264441;28;20025;-69
2023/03/12 04:35:03;;;;;;;13.00;4.63;;;;;;;2.41;82.63;100684.34;5263770;28;20041;-69
2023/03/12 04:37:35;;;;;;;11.93;5.43;;;;;;;2.43;83.01;100672.41;5262309;28;20502;-68
2023/03/12 04:40:08;;;;;;;8.30;4.10;;;;;;;2.44;82.89;100676.69;5263286;28;20385;-69
2023/03/12 04:42:39;;;;;;;11.13;5.20;;;;;;;2.44;83.12;100670.69;5263447;28;20037;-69
2023/03/12 04:45:11;;;;;;;10.47;3.87;;;;;;;2.45;83.11;100673.28;5263637;28;20035;-69
2023/03/12 04:47:42;;;;;;;10.37;4.33;;;;;;;2.43;82.94;100682.69;5263297;28;20052;-69
2023/03/12 04:50:14;;;;;;;11.77;4.53;;;;;;;2.47;82.56;100694.75;5263990;28;20091;-70
2023/03/12 04:52:45;;;;;;;10.23;4.77;;;;;;;2.45;83.09;100691.31;5263387;28;20035;-69
2023/03/12 04:55:16;;;;;;;11.73;4.50;;;;;;;2.44;83.05;100681.84;5263026;28;20032;-69
2023/03/12 04:57:48;;;;;;;8.30;4.63;;;;;;;2.45;83.88;100673.28;5263571;28;20033;-69
2023/03/12 05:00:20;;;;;;;14.27;4.43;;;;;;;2.43;84.12;100674.97;5263328;28;20119;-68
2023/03/12 05:02:52;;;;;;;10.23;4.73;;;;;;;2.43;84.55;100669.84;5263517;28;20063;-69
2023/03/12 05:05:23;;;;;;;8.13;4.10;;;;;;;2.40;85.87;100659.47;5262832;28;20069;-69
2023/03/12 05:07:54;;;;;;;11.43;4.50;;;;;;;2.41;85.50;100660.34;5263297;28;20455;-68
2023/03/12 05:10:26;;;;;;;8.57;3.80;;;;;;;2.35;86.08;100645.66;5263181;28;20059;-68
2023/03/12 05:12:58;;;;;;;11.17;4.77;;;;;;;2.35;87.04;100641.38;5263351;28;20067;-69
2023/03/12 05:15:29;;;;;;;8.93;4.82;;;;;;;2.38;86.92;100640.56;5262927;28;20035;-69
2023/03/12 05:18:01;;;;;;;7.57;4.53;;;;;;;2.36;87.93;100642.25;5262665;28;20033;-69
2023/03/12 05:20:32;;;;;;;10.43;4.57;;;;;;;2.35;89.59;100638.81;5262424;28;20387;-69
2023/03/12 05:23:04;;;;;;;8.80;4.67;;;;;;;2.35;90.81;100637.94;5262819;28;20025;-69
2023/03/12 05:25:40;;;;;;;7.43;4.23;;;;;;;2.27;93.02;100637.81;5262519;28;20027;-69
2023/03/12 05:28:11;;;;;;;10.32;4.55;;;;;;;2.21;94.51;100637.69;5262031;28;20044;-69
2023/03/12 05:30:43;;;;;;;12.37;4.50;;;;;;;2.22;95.35;100634.25;5263000;28;20366;-69
2023/03/12 05:33:14;;;;;;;10.53;4.83;;;;;;;2.18;96.73;100635.91;5262156;28;20492;-69
2023/03/12 05:35:45;;;;;;;9.47;4.50;;;;;;;2.22;96.58;100631.69;5262917;28;20033;-69
2023/03/12 05:38:17;;;;;;;14.63;5.00;;;;;;;2.16;98.19;100619.59;5244465;28;20087;-68
2023/03/12 05:40:54;;;;;;;10.97;4.40;;;;;;;2.21;98.48;100626.50;5261490;28;20079;-70
2023/03/12 05:43:26;;;;;;;12.32;5.07;;;;;;;2.15;99.09;100624.72;5244950;28;20029;-70
2023/03/12 05:46:03;;;;;;;10.00;4.68;;;;;;;2.13;100.00;100621.25;5262467;28;20028;-70
2023/03/12 05:48:34;;;;;;;10.43;4.55;;;;;;;2.13;100.00;100610.97;5262226;28;20421;-69
2023/03/12 05:51:06;;;;;;;13.63;4.80;;;;;;;2.12;100.00;100612.66;5262251;28;20039;-70
2023/03/12 05:53:37;;;;;;;10.53;4.80;;;;;;;2.13;100.00;100616.97;5262167;28;20029;-69
2023/03/12 05:56:13;;;;;;;6.80;4.60;;;;;;;2.13;100.00;100616.97;5261818;28;20048;-69
2023/03/12 05:58:47;;;;;;;12.90;6.10;;;;;;;2.17;100.00;100621.34;5263522;28;20065;-70
2023/03/12 06:01:25;;;;;;;9.32;4.57;;;;;;;2.19;100.00;100619.66;5267289;28;20444;-70
2023/03/12 06:03:57;;;;;;;9.95;4.85;;;;;;;2.18;100.00;100610.19;5267260;28;20067;-69
2023/03/12 06:06:30;;;;;;;16.27;5.57;;;;;;;2.17;100.00;100616.19;5266629;28;20034;-69
2023/03/12 06:09:03;;;;;;;7.43;5.13;;;;;;;2.18;100.00;100629.91;5267058;28;20025;-69
2023/03/12 06:11:35;;;;;;;7.97;5.00;;;;;;;2.22;100.00;100631.69;5266656;28;20025;-69
2023/03/12 06:14:06;;;;;;;12.07;5.57;;;;;;;2.23;100.00;100627.44;5265750;28;20056;-70
2023/03/12 06:16:37;;;;;;;13.93;4.47;;;;;;;2.28;100.00;100623.22;5265330;28;20124;-70
2023/03/12 06:19:12;;;;;;;11.23;5.40;;;;;;;2.29;100.00;100630.13;5266089;28;20036;-70
2023/03/12 06:21:44;;;;;;;10.35;5.20;;;;;;;2.32;100.00;100632.75;5266140;28;20078;-70
2023/03/12 06:24:15;;;;;;;12.97;6.13;;;;;;;2.35;100.00;100643.97;5266403;28;20464;-69
2023/03/12 06:26:47;;;;;;;10.27;5.27;;;;;;;2.35;100.00;100646.53;5265779;28;20087;-69
2023/03/12 06:29:18;;;;;;;9.37;5.50;;;;;;;2.35;100.00;100640.50;5266390;28;20053;-69
2023/03/12 06:31:51;;;;;;;10.47;5.00;;;;;;;2.37;100.00;100626.84;5264575;28;20468;-70
2023/03/12 06:34:22;;;;;;;12.45;5.18;;;;;;;2.40;100.00;100632.88;5266229;28;20371;-69
2023/03/12 06:36:53;;;;;;;11.83;5.23;;;;;;;2.39;100.00;100615.72;5266163;28;20032;-70
2023/03/12 06:39:25;;;;;;;14.70;6.60;;;;;;;2.39;100.00;100621.72;5266097;28;20040;-70
2023/03/12 06:41:56;;;;;;;12.70;6.40;;;;;;;2.36;100.00;100616.53;5265885;28;20430;-68
2023/03/12 06:44:28;;;;;;;13.47;6.53;;;;;;;2.30;100.00;100611.25;5264372;28;20037;-68
2023/03/12 06:46:59;;;;;;;13.73;6.87;;;;;;;2.28;100.00;100610.38;5266275;28;20577;-68
2023/03/12 06:49:32;;;;;;;19.43;7.80;;;;;;;2.28;100.00;100598.38;5265491;28;20029;-69
2023/03/12 06:52:04;;;;;;;10.27;6.78;;;;;;;2.24;100.00;100588.88;5266099;28;20025;-69
2023/03/12 06:54:35;;;;;;;13.32;7.43;;;;;;;2.21;100.00;100582.78;5265636;28;20099;-68
2023/03/12 06:57:06;;;;;;;11.60;7.47;;;;;;;2.22;100.00;100581.97;5265932;28;20037;-69
2023/03/12 06:59:38;;;;;;;13.63;7.90;;;;;;;2.21;100.00;100588.81;5265586;28;20103;-71
2023/03/12 07:02:12;;;;;;;12.97;8.70;;;;;;;2.19;100.00;100588.78;5264620;28;20078;-70
2023/03/12 07:04:43;;;;;;;13.27;7.97;;;;;;;2.21;100.00;100580.22;5265340;28;20032;-68
2023/03/12 07:07:15;;;;;;;18.07;7.63;;;;;;;2.22;100.00;100580.25;5265553;28;20071;-68
2023/03/12 07:09:47;;;;;;;16.55;7.97;;;;;;;2.25;100.00;100575.16;5264222;28;20029;-69
2023/03/12 07:12:18;;;;;;;15.53;8.63;;;;;;;2.23;100.00;100571.72;5264001;28;20456;-69
2023/03/12 07:14:49;;;;;;;17.93;8.37;;;;;;;2.27;100.00;100573.50;5265287;28;20032;-69
2023/03/12 07:17:22;;;;;;;11.90;8.17;;;;;;;2.30;100.00;100573.56;5265035;28;20029;-68
2023/03/12 07:19:53;;;;;;;12.68;7.93;;;;;;;2.36;100.00;100577.94;5265524;28;20041;-70
2023/03/12 07:22:25;;;;;;;11.90;8.03;;;;;;;2.37;100.00;100580.53;5265500;28;20045;-69
2023/03/12 07:24:57;;;;;;;15.83;8.97;;;;;;;2.43;100.00;100586.63;5263883;28;20036;-69
2023/03/12 07:27:28;;;;;;;12.95;8.38;;;;;;;2.44;100.00;100581.50;5264738;28;20536;-68
2023/03/12 07:29:59;;;;;;;18.77;8.93;;;;;;;2.49;100.00;100576.44;5264921;28;20131;-70
2023/03/12 07:32:32;;;;;;;15.73;10.07;;;;;;;2.51;100.00;100593.66;5265016;28;20032;-69
2023/03/12 07:35:04;;;;;;;17.10;9.70;;;;;;;2.54;100.00;100585.09;5264549;28;20407;-68
2023/03/12 07:37:35;;;;;;;16.43;8.53;;;;;;;2.58;100.00;100594.63;5263379;28;20083;-69
2023/03/12 07:40:07;;;;;;;13.60;8.63;;;;;;;2.61;100.00;100584.38;5264631;28;20064;-68
2023/03/12 07:42:38;;;;;;;15.77;9.88;;;;;;;2.64;100.00;100598.97;5264923;28;20436;-71
2023/03/12 07:45:10;;;;;;;13.13;9.33;;;;;;;2.64;100.00;100596.41;5263577;28;20032;-68
2023/03/12 07:47:42;;;;;;;13.85;10.02;;;;;;;2.66;100.00;100572.44;5264653;28;20120;-68
2023/03/12 07:50:14;;;;;;;16.77;9.73;;;;;;;2.66;100.00;100595.59;5264912;28;20108;-68
2023/03/12 07:52:46;;;;;;;18.42;10.02;;;;;;;2.70;100.00;100599.94;5264466;28;20029;-68
2023/03/12 07:55:17;;;;;;;15.17;10.33;;;;;;;2.70;100.00;100578.50;5264899;28;20031;-69
2023/03/12 07:57:49;;;;;;;18.67;11.83;;;;;;;2.74;100.00;100593.16;5264798;28;20043;-69
2023/03/12 08:00:21;;;;;;;12.60;10.63;;;;;;;2.81;100.00;100587.25;5263730;28;20032;-68
2023/03/12 08:02:52;;;;;;;13.50;10.37;;;;;;;2.83;100.00;100580.41;5263288;28;20353;-68
2023/03/12 08:05:24;;;;;;;17.20;12.07;;;;;;;2.87;100.00;100579.63;5264432;28;20032;-67
2023/03/12 08:07:55;;;;;;;14.97;10.70;;;;;;;2.95;100.00;100578.88;5264353;28;20056;-68
2023/03/12 08:10:26;;;;;;;19.17;10.87;;;;;;;3.06;100.00;100585.06;5264390;28;20037;-68
2023/03/12 08:12:58;;;;;;;14.87;10.40;;;;;;;3.08;100.00;100584.22;5263159;28;20039;-68
2023/03/12 08:15:29;;;;;;;16.90;11.57;;;;;;;3.19;100.00;100584.38;5246428;28;20043;-68
2023/03/12 08:18:00;;;;;;;19.13;11.50;;;;;;;3.24;100.00;100584.47;5264063;28;20036;-68
2023/03/12 08:20:32;;;;;;;14.10;11.17;;;;;;;3.34;100.00;100578.56;5264070;28;20564;-68
2023/03/12 08:23:03;;;;;;;13.80;11.60;;;;;;;3.41;100.00;100579.53;5262556;28;20035;-69
2023/03/12 08:25:35;;;;;;;16.63;12.03;;;;;;;3.57;100.00;100588.31;5264470;28;20033;-69
2023/03/12 08:28:07;;;;;;;15.48;11.18;;;;;;;3.62;100.00;100578.94;5263861;28;20056;-68
2023/03/12 08:30:38;;;;;;;13.30;10.87;;;;;;;3.68;100.00;100584.16;5264519;28;20120;-71
2023/03/12 08:33:09;;;;;;;15.73;9.83;;;;;;;3.80;100.00;100583.44;5263877;28;20116;-69
2023/03/12 08:35:41;;;;;;;18.33;10.43;;;;;;;3.84;100.00;100591.22;5263505;28;20064;-70
2023/03/12 08:38:12;;;;;;;10.77;9.17;;;;;;;3.91;100.00;100604.19;5264177;28;20522;-68
2023/03/12 08:40:44;;;;;;;13.47;10.40;;;;;;;3.94;100.00;100601.66;5263949;28;20037;-69
2023/03/12 08:43:15;;;;;;;12.87;9.70;;;;;;;4.02;100.00;100602.59;5264734;28;20020;-69
2023/03/12 08:45:53;;;;;;;12.40;10.03;;;;;;;4.09;100.00;100603.53;5263569;28;20036;-69
2023/03/12 08:48:25;;;;;;;13.27;10.43;;;;;;;4.17;100.00;100612.22;5263535;28;20108;-69
2023/03/12 08:50:58;;;;;;;16.55;11.27;;;;;;;4.26;100.00;100617.47;5263483;28;20037;-69
2023/03/12 08:53:31;;;;;;;14.98;12.20;;;;;;;4.37;100.00;100615.88;5263267;28;20045;-69
2023/03/12 08:56:03;;;;;;;14.93;11.73;;;;;;;4.46;100.00;100616.81;5245294;28;20040;-69
2023/03/12 08:58:34;;;;;;;16.00;11.60;;;;;;;4.54;100.00;100616.03;5263509;28;20040;-68
2023/03/12 09:01:10;;;;;;;17.53;13.53;;;;;;;4.66;100.00;100611.84;5262934;28;20025;-68
2023/03/12 09:03:42;;;;;;;22.05;15.30;;;;;;;4.77;100.00;100615.38;5262023;28;20071;-68
2023/03/12 09:06:15;;;;;;;19.67;15.40;;;;;;;4.87;100.00;100621.47;5262999;28;20150;-70
2023/03/12 09:08:48;;;;;;;23.27;16.63;;;;;;;4.99;100.00;100616.41;5261721;28;20123;-69
2023/03/12 09:11:19;;;;;;;21.02;16.75;;;;;;;5.09;100.00;100613.03;5262933;28;20037;-71
2023/03/12 09:13:51;;;;;;;20.30;16.40;;;;;;;5.18;100.00;100637.19;5263108;28;20040;-69
2023/03/12 09:16:22;;;;;;;22.77;18.77;;;;;;;5.28;100.00;100626.06;5262753;28;20029;-69
2023/03/12 09:18:54;;;;;;;26.37;18.50;;;;;;;5.41;100.00;100620.13;5263352;28;20094;-68
2023/03/12 09:21:25;;;;;;;25.97;18.17;;;;;;;5.55;100.00;100619.31;5262542;28;20039;-69
2023/03/12 09:23:57;;;;;;;25.67;18.57;;;;;;;5.68;100.00;100620.25;5261582;28;20279;-69
2023/03/12 09:26:28;;;;;;;20.60;16.93;;;;;;;5.77;100.00;100631.50;5262427;28;20037;-69
2023/03/12 09:29:00;;;;;;;22.80;18.53;;;;;;;5.81;100.00;100622.03;5261246;28;20393;-69
2023/03/12 09:31:31;;;;;;;21.23;18.47;;;;;;;5.89;100.00;100617.75;5262428;28;20488;-69
2023/03/12 09:34:03;;;;;;;20.37;17.23;;;;;;;6.03;100.00;100623.00;5261239;28;20029;-68
2023/03/12 09:36:34;;;;;;;24.10;18.93;;;;;;;6.18;100.00;100628.25;5262505;28;20033;-70
2023/03/12 09:39:06;;;;;;;22.37;18.83;;;;;;;6.25;100.00;100631.72;5262369;28;20029;-69
2023/03/12 09:41:40;;;;;;;22.73;19.53;;;;;;;6.43;100.00;100617.94;5262503;28;20473;-69
2023/03/12 09:44:33;;;;;;;21.35;19.15;;;;;;;6.60;100.00;100622.25;5262421;28;20029;-69
2023/03/12 09:47:08;;;;;;;;;;;;;;;6.71;100.00;100631.78;5262866;28;20417;-69
2023/03/12 09:49:49;;;;;;;21.83;19.38;;;;;;;6.85;100.00;100625.75;5262125;28;19913;-70
2023/03/12 09:52:30;;;;;;;20.80;18.70;;;;;;;6.94;100.00;100646.47;5262658;28;20029;-68
2023/03/12 09:55:20;;;;;;;19.85;17.85;;;;;;;6.96;100.00;100649.06;5262845;28;20025;-69
2023/03/12 09:57:52;;;;;;;20.52;18.45;;;;;;;6.96;100.00;100655.09;5262345;28;20036;-69
2023/03/12 10:00:29;;;;;;;21.87;18.40;;;;;;;7.03;100.00;100656.81;5262994;28;20460;-68
2023/03/12 10:03:09;;;;;;;20.63;18.65;;;;;;;7.04;100.00;100655.97;5261800;28;20456;-70
2023/03/12 10:05:53;;;;;;;22.80;20.50;;;;;;;7.02;100.00;100646.44;5262304;28;20076;-69
2023/03/12 10:08:55;;;;;;;21.67;19.38;;;;;;;7.19;100.00;100667.19;5262747;28;20036;-68
2023/03/12 10:11:38;;;;;;;22.00;19.75;;;;;;;7.29;100.00;100656.81;5262641;28;20121;-69
2023/03/12 10:14:20;;;;;;;22.50;19.05;;;;;;;7.39;100.00;100654.19;5262100;28;20113;-68
2023/03/12 10:17:04;;;;;;;23.90;20.23;;;;;;;7.53;100.00;100659.34;5262734;28;20471;-70
2023/03/12 10:19:53;;;;;;;24.55;19.75;;;;;;;7.61;100.00;100658.47;5262395;28;20260;-70
2023/03/12 10:22:55;;;;;;;23.55;19.90;;;;;;;7.67;100.00;100657.59;5262151;28;20036;-68
2023/03/12 10:25:35;;;;;;;22.85;19.65;;;;;;;7.61;100.00;100642.03;5262341;28;20021;-69
2023/03/12 10:28:16;;;;;;;29.02;21.35;;;;;;;7.58;100.00;100650.72;5261387;28;20384;-68
2023/03/12 10:31:00;;;;;;;28.95;22.10;;;;;;;7.59;100.00;100657.59;5261947;28;20029;-70
2023/03/12 10:33:56;;;;;;;27.60;20.75;;;;;;;7.61;100.00;100652.41;5261757;28;20562;-70
2023/03/12 10:36:35;;;;;;;32.28;22.83;;;;;;;7.67;100.00;100649.81;5259220;28;20045;-68
2023/03/12 10:39:15;;;;;;;31.27;22.75;;;;;;;7.76;100.00;100673.13;5262554;28;20048;-69
2023/03/12 10:41:47;;;;;;;34.22;22.58;;;;;;;7.85;100.00;100657.50;5262356;28;20457;-70
2023/03/12 10:44:24;;;;;;;32.60;21.08;;;;;;;7.97;100.00;100656.63;5262877;28;20048;-69
2023/03/12 10:47:21;;;;;;;34.58;22.80;;;;;;;8.14;100.00;100656.53;5264292;28;20032;-69
2023/03/12 10:49:52;;;;;;;34.67;20.40;;;;;;;8.42;100.00;100648.63;5265812;28;20029;-69
2023/03/12 10:52:23;;;;;;;38.23;22.77;;;;;;;8.50;100.00;100643.38;5265109;28;20032;-69
2023/03/12 10:54:55;;;;;;;31.77;21.03;;;;;;;8.54;100.00;100645.09;5265536;28;20028;-68
2023/03/12 10:57:39;;;;;;;33.93;19.77;;;;;;;8.57;100.00;100645.94;5265919;28;20037;-69
2023/03/12 11:00:22;;;;;;;42.78;19.75;;;;;;;8.81;100.00;100648.38;5265828;28;20040;-69
2023/03/12 11:02:57;;;;;;;34.17;19.98;;;;;;;9.02;100.00;100652.53;5265674;28;20037;-69
2023/03/12 11:05:50;;;;;;;36.22;17.42;;;;;;;9.14;100.00;100652.41;5265303;28;20036;-69
2023/03/12 11:08:32;;;;;;;;;;;;;;;9.29;100.00;100654.88;5266441;28;20063;-69
2023/03/12 11:11:04;;;;;;;34.85;17.23;;;;;;;9.11;100.00;100661.13;5265364;28;19966;-68
2023/03/12 11:13:39;;;;;;;34.80;17.08;;;;;;;9.18;100.00;100661.06;5265582;28;20364;-70
2023/03/12 11:16:16;;;;;;;33.65;15.80;;;;;;;9.33;100.00;100666.13;5263527;28;20392;-69
2023/03/12 11:18:56;;;;;;;36.17;16.35;;;;;;;9.20;100.00;100670.56;5265006;28;20151;-69
2023/03/12 11:21:30;;;;;;;29.38;16.30;;;;;;;9.27;100.00;100668.78;5267701;28;20032;-68
2023/03/12 11:24:06;;;;;;;34.50;15.10;;;;;;;9.28;100.00;100665.31;5265039;28;20036;-69
2023/03/12 11:26:48;;;;;;;40.75;16.15;;;;;;;9.29;100.00;100667.91;5264995;28;20071;-72
2023/03/12 11:29:31;;;;;;;42.60;17.10;;;;;;;9.24;100.00;100664.47;5264553;28;20110;-69
2023/03/12 11:32:18;;;;;;;47.00;15.13;;;;;;;9.25;100.00;100668.78;5264979;28;20029;-69
2023/03/12 11:34:51;;;;;;;36.72;14.35;;;;;;;9.35;100.00;100669.56;5263832;28;20037;-70
2023/03/12 11:37:50;;;;;;;37.30;16.13;;;;;;;9.40;100.00;100674.72;5264849;28;20124;-70
2023/03/12 11:40:21;;;;;;;38.47;14.82;;;;;;;9.33;100.00;100676.53;5264600;28;20164;-70
2023/03/12 11:43:30;;;;;;;29.53;13.07;;;;;;;9.26;100.00;100667.06;5263353;28;20040;-70
2023/03/12 11:46:16;;;;;;;35.95;14.18;;;;;;;9.10;100.00;100676.75;5264797;28;20017;-71
2023/03/12 11:48:47;;;;;;;34.67;14.00;;;;;;;9.11;100.00;100676.72;5264793;28;20021;-68
2023/03/12 11:51:19;;;;;;;35.87;14.30;;;;;;;9.12;100.00;100675.84;5263545;28;20479;-70